Terminal Aerodrome Forecast
Issued by NWS Portland, ME

Current Version | Previous Version | Text Only | Print | Product List | Glossary On
Versions: 1 2 3 4 5 6 7 8 9 10 11 12 13 14 15 16 17 18 19 20 21
000 FTUS41 KGYX 260528 TAFPWM TAF KPWM 260528Z 2606/2706 33007KT P6SM BKN250 FM261400 03006KT P6SM SCT120 OVC200 FM270000 02012KT P6SM BKN025 OVC060=

USA.gov is the U.S. government's official web portal to all federal, state and local government web resources and services.